CCA7892 ZSPD-ZBYN
Flight info
| Callsign | CCA7892 |
|---|---|
| Flight time | N/A |
| Altitude | 38100 |
| Route | POMOK G330 UNTAN G345 OLRIS R343 HFE B208 ANPIG ANPIG8ZA |
| Aircraft | B77W/H-SDE1E2E3FGHIJ2J3J4J5M1RWXY/LB1D1 |
Departure
| Time | 2026-04-30 10:46 |
|---|---|
| Airport | Shanghai Pudong International Airport (ZSPD) |
Arrival
| Time | N/A |
|---|---|
| Airport | Taiyuan Wusu International Airport (ZBYN) |
| Time | Latitude | Longitude | Altitude | Speed | Heading |
|---|---|---|---|---|---|
| 2026-04-30 10:09 | 31.14867 | 121.79751 | 28 ft | 0 kts | 71° |
| 2026-04-30 10:32 | 31.14863 | 121.79736 | 28 ft | 2 kts | 71° |
| 2026-04-30 10:32 | 31.14858 | 121.79720 | 28 ft | 2 kts | 72° |
| 2026-04-30 10:32 | 31.14854 | 121.79705 | 28 ft | 2 kts | 72° |
| 2026-04-30 10:33 | 31.14849 | 121.79690 | 28 ft | 1 kts | 72° |
| 2026-04-30 10:33 | 31.14846 | 121.79680 | 28 ft | 2 kts | 67° |
| 2026-04-30 10:33 | 31.14839 | 121.79666 | 28 ft | 2 kts | 42° |
| 2026-04-30 10:33 | 31.14828 | 121.79658 | 28 ft | 2 kts | 24° |
| 2026-04-30 10:34 | 31.14815 | 121.79653 | 28 ft | 2 kts | 5° |
| 2026-04-30 10:34 | 31.14800 | 121.79655 | 28 ft | 1 kts | 344° |
| 2026-04-30 10:34 | 31.14795 | 121.79656 | 28 ft | 0 kts | 340° |
| 2026-04-30 10:34 | 31.14796 | 121.79656 | 28 ft | 0 kts | 340° |
| 2026-04-30 10:36 | 31.14796 | 121.79655 | 28 ft | 0 kts | 340° |
| 2026-04-30 10:36 | 31.14801 | 121.79654 | 28 ft | 2 kts | 339° |
| 2026-04-30 10:37 | 31.14819 | 121.79646 | 28 ft | 5 kts | 341° |
| 2026-04-30 10:37 | 31.14848 | 121.79636 | 28 ft | 0 kts | 342° |
| 2026-04-30 10:37 | 31.14852 | 121.79634 | 28 ft | 0 kts | 342° |
| 2026-04-30 10:37 | 31.14855 | 121.79633 | 28 ft | 0 kts | 342° |
| 2026-04-30 10:38 | 31.14858 | 121.79632 | 28 ft | 0 kts | 342° |
| 2026-04-30 10:38 | 31.14871 | 121.79627 | 28 ft | 5 kts | 342° |
| 2026-04-30 10:38 | 31.14920 | 121.79596 | 28 ft | 8 kts | 313° |
| 2026-04-30 10:38 | 31.14929 | 121.79530 | 28 ft | 8 kts | 250° |
| 2026-04-30 10:39 | 31.14908 | 121.79464 | 28 ft | 8 kts | 250° |
| 2026-04-30 10:39 | 31.14888 | 121.79395 | 28 ft | 11 kts | 252° |
| 2026-04-30 10:39 | 31.14845 | 121.79315 | 28 ft | 8 kts | 204° |
| 2026-04-30 10:39 | 31.14782 | 121.79327 | 28 ft | 8 kts | 162° |
| 2026-04-30 10:40 | 31.14734 | 121.79345 | 28 ft | 11 kts | 162° |
| 2026-04-30 10:40 | 31.14654 | 121.79376 | 28 ft | 17 kts | 162° |
| 2026-04-30 10:40 | 31.14471 | 121.79445 | 28 ft | 22 kts | 165° |
| 2026-04-30 10:41 | 31.14264 | 121.79523 | 28 ft | 19 kts | 162° |
| 2026-04-30 10:41 | 31.14184 | 121.79553 | 28 ft | 19 kts | 162° |
| 2026-04-30 10:41 | 31.14100 | 121.79587 | 28 ft | 17 kts | 163° |
| 2026-04-30 10:41 | 31.14010 | 121.79619 | 28 ft | 17 kts | 162° |
| 2026-04-30 10:42 | 31.13870 | 121.79672 | 28 ft | 23 kts | 161° |
| 2026-04-30 10:42 | 31.13729 | 121.79726 | 28 ft | 28 kts | 162° |
| 2026-04-30 10:42 | 31.13537 | 121.79799 | 28 ft | 33 kts | 161° |
| 2026-04-30 10:42 | 31.13367 | 121.79864 | 28 ft | 22 kts | 162° |
| 2026-04-30 10:43 | 31.13237 | 121.79913 | 28 ft | 22 kts | 162° |
| 2026-04-30 10:43 | 31.13076 | 121.79974 | 28 ft | 22 kts | 161° |
| 2026-04-30 10:43 | 31.12833 | 121.80064 | 28 ft | 5 kts | 163° |
| 2026-04-30 10:44 | 31.12767 | 121.80064 | 28 ft | 3 kts | 211° |
| 2026-04-30 10:44 | 31.12752 | 121.80044 | 28 ft | 3 kts | 237° |
| 2026-04-30 10:44 | 31.12750 | 121.80042 | 28 ft | 0 kts | 239° |
| 2026-04-30 10:44 | 31.12741 | 121.80021 | 28 ft | 5 kts | 242° |
| 2026-04-30 10:45 | 31.12721 | 121.79954 | 28 ft | 10 kts | 260° |
| 2026-04-30 10:45 | 31.12751 | 121.79881 | 28 ft | 9 kts | 328° |
| 2026-04-30 10:45 | 31.12805 | 121.79854 | 28 ft | 9 kts | 341° |
| 2026-04-30 10:45 | 31.12964 | 121.79793 | 28 ft | 66 kts | 342° |
| 2026-04-30 10:46 | 31.13499 | 121.79599 | 28 ft | 142 kts | 342° |
| 2026-04-30 10:46 | 31.15694 | 121.78758 | 1735 ft | 173 kts | 342° |
| 2026-04-30 10:46 | 31.16704 | 121.78374 | 2440 ft | 179 kts | 340° |
| 2026-04-30 10:47 | 31.18386 | 121.77683 | 3040 ft | 195 kts | 340° |
| 2026-04-30 10:47 | 31.19525 | 121.77219 | 3194 ft | 200 kts | 340° |